Time,TemperatureF,DewpointF,PressureIn,WindDirection,WindDirectionDegrees,WindSpeedMPH,WindSpeedGustMPH,Humidity,HourlyPrecipIn,Conditions,Clouds,dailyrainin,SolarRadiationWatts/m^2,SoftwareType,DateUTC
2013-02-23 00:01:00,27.0,25.0,-100.00,SW,224,5.0,10.0,93,0.00,,,0.00,1.000000,,2013-02-23 08:01:00,
2013-02-23 00:32:00,28.0,26.0,-100.00,WSW,248,9.0,16.0,93,0.00,,,0.00,1.000000,,2013-02-23 08:32:00,
2013-02-23 00:42:00,28.0,26.0,-100.00,WSW,248,9.0,16.0,93,0.00,,,0.00,1.000000,,2013-02-23 08:42:00,
2013-02-23 00:52:00,28.0,26.0,-100.00,WSW,248,9.0,16.0,93,0.00,,,0.00,1.000000,,2013-02-23 08:52:00,
2013-02-23 01:01:00,28.0,26.0,-100.00,WSW,248,9.0,16.0,93,0.00,,,0.00,1.000000,,2013-02-23 09:01:00,
2013-02-23 01:32:00,27.0,24.0,-100.00,SSW,211,9.0,15.0,89,0.00,,,0.00,1.000000,,2013-02-23 09:32:00,
2013-02-23 01:42:00,27.0,24.0,-100.00,SSW,211,9.0,15.0,89,0.00,,,0.00,1.000000,,2013-02-23 09:42:00,
2013-02-23 01:52:00,27.0,24.0,-100.00,SSW,211,9.0,15.0,89,0.00,,,0.00,1.000000,,2013-02-23 09:52:00,
2013-02-23 02:01:00,27.0,24.0,-100.00,SSW,211,9.0,15.0,89,0.00,,,0.00,1.000000,,2013-02-23 10:01:00,
2013-02-23 02:32:00,26.0,21.0,-100.00,SW,224,9.0,15.0,81,0.00,,,0.00,1.000000,,2013-02-23 10:32:00,
2013-02-23 02:42:00,26.0,21.0,-100.00,SW,224,9.0,15.0,81,0.00,,,0.00,1.000000,,2013-02-23 10:42:00,
2013-02-23 02:52:00,26.0,21.0,-100.00,SW,224,9.0,15.0,81,0.00,,,0.00,1.000000,,2013-02-23 10:52:00,
2013-02-23 03:01:00,26.0,21.0,-100.00,SW,224,9.0,15.0,81,0.00,,,0.00,1.000000,,2013-02-23 11:01:00,
2013-02-23 03:32:00,25.0,20.0,-100.00,SSW,212,8.0,15.0,80,0.00,,,0.00,1.000000,,2013-02-23 11:32:00,
2013-02-23 03:42:00,25.0,20.0,-100.00,SSW,212,8.0,15.0,80,0.00,,,0.00,1.000000,,2013-02-23 11:42:00,
2013-02-23 03:52:00,25.0,20.0,-100.00,SSW,212,8.0,15.0,80,0.00,,,0.00,1.000000,,2013-02-23 11:52:00,
2013-02-23 04:01:00,25.0,20.0,-100.00,SSW,212,8.0,15.0,80,0.00,,,0.00,1.000000,,2013-02-23 12:01:00,
2013-02-23 04:32:00,24.0,20.0,-100.00,SSW,205,5.0,13.0,83,0.00,,,0.00,1.000000,,2013-02-23 12:32:00,
2013-02-23 04:42:00,24.0,20.0,-100.00,SSW,205,5.0,13.0,83,0.00,,,0.00,1.000000,,2013-02-23 12:42:00,
2013-02-23 04:52:00,24.0,20.0,-100.00,SSW,205,5.0,13.0,83,0.00,,,0.00,1.000000,,2013-02-23 12:52:00,
2013-02-23 05:01:00,24.0,20.0,-100.00,SSW,205,5.0,13.0,83,0.00,,,0.00,1.000000,,2013-02-23 13:01:00,
2013-02-23 05:22:00,25.0,19.0,-100.00,SSW,209,7.0,14.0,77,0.00,,,0.00,1.000000,,2013-02-23 13:22:00,
2013-02-23 05:32:00,25.0,19.0,-100.00,SSW,209,7.0,14.0,77,0.00,,,0.00,1.000000,,2013-02-23 13:32:00,
2013-02-23 05:42:00,25.0,19.0,-100.00,SSW,209,7.0,14.0,77,0.00,,,0.00,1.000000,,2013-02-23 13:42:00,
2013-02-23 05:52:00,25.0,19.0,-100.00,SSW,209,7.0,14.0,77,0.00,,,0.00,1.000000,,2013-02-23 13:52:00,
2013-02-23 06:01:00,25.0,19.0,-100.00,SSW,209,7.0,14.0,77,0.00,,,0.00,1.000000,,2013-02-23 14:01:00,
2013-02-23 06:32:00,25.0,20.0,-100.00,SW,222,9.0,15.0,81,0.00,,,0.00,1.000000,,2013-02-23 14:32:00,
2013-02-23 06:42:00,25.0,20.0,-100.00,SW,222,9.0,15.0,81,0.00,,,0.00,1.000000,,2013-02-23 14:42:00,
2013-02-23 06:52:00,25.0,20.0,-100.00,SW,222,9.0,15.0,81,0.00,,,0.00,1.000000,,2013-02-23 14:52:00,
2013-02-23 07:01:00,25.0,20.0,-100.00,SW,222,9.0,15.0,81,0.00,,,0.00,1.000000,,2013-02-23 15:01:00,
2013-02-23 07:22:00,27.0,21.0,-100.00,SW,232,11.0,17.0,77,0.00,,,0.00,2.000000,,2013-02-23 15:22:00,
2013-02-23 07:32:00,27.0,21.0,-100.00,SW,232,11.0,17.0,77,0.00,,,0.00,2.000000,,2013-02-23 15:32:00,
2013-02-23 07:42:00,27.0,21.0,-100.00,SW,232,11.0,17.0,77,0.00,,,0.00,2.000000,,2013-02-23 15:42:00,
2013-02-23 07:52:00,27.0,21.0,-100.00,SW,232,11.0,17.0,77,0.00,,,0.00,2.000000,,2013-02-23 15:52:00,
2013-02-23 08:01:00,27.0,21.0,-100.00,SW,232,11.0,17.0,77,0.00,,,0.00,2.000000,,2013-02-23 16:01:00,
2013-02-23 08:22:00,30.0,22.0,-100.00,SW,233,10.0,16.0,71,0.00,,,0.00,59.000000,,2013-02-23 16:22:00,
2013-02-23 08:32:00,30.0,22.0,-100.00,SW,233,10.0,16.0,71,0.00,,,0.00,59.000000,,2013-02-23 16:32:00,
2013-02-23 08:42:00,30.0,22.0,-100.00,SW,233,10.0,16.0,71,0.00,,,0.00,59.000000,,2013-02-23 16:42:00,
2013-02-23 08:52:00,30.0,22.0,-100.00,SW,233,10.0,16.0,71,0.00,,,0.00,59.000000,,2013-02-23 16:52:00,
2013-02-23 09:01:00,30.0,22.0,-100.00,SW,233,10.0,16.0,71,0.00,,,0.00,59.000000,,2013-02-23 17:01:00,
2013-02-23 09:32:00,33.0,23.0,-100.00,WSW,242,13.0,20.0,66,0.00,,,0.00,207.000000,,2013-02-23 17:32:00,
2013-02-23 09:42:00,33.0,23.0,-100.00,WSW,242,13.0,20.0,66,0.00,,,0.00,207.000000,,2013-02-23 17:42:00,
2013-02-23 09:52:00,33.0,23.0,-100.00,WSW,242,13.0,20.0,66,0.00,,,0.00,207.000000,,2013-02-23 17:52:00,
2013-02-23 10:01:00,33.0,23.0,-100.00,WSW,242,13.0,20.0,66,0.00,,,0.00,207.000000,,2013-02-23 18:01:00,
2013-02-23 10:32:00,35.0,23.0,-100.00,WSW,257,13.0,20.0,62,0.00,,,0.00,363.000000,,2013-02-23 18:32:00,
2013-02-23 10:42:00,35.0,23.0,-100.00,WSW,257,13.0,20.0,62,0.00,,,0.00,363.000000,,2013-02-23 18:42:00,
2013-02-23 10:52:00,35.0,23.0,-100.00,WSW,257,13.0,20.0,62,0.00,,,0.00,363.000000,,2013-02-23 18:52:00,
2013-02-23 11:01:00,35.0,23.0,-100.00,WSW,257,13.0,20.0,62,0.00,,,0.00,363.000000,,2013-02-23 19:01:00,
2013-02-23 11:32:00,37.0,24.0,-100.00,WSW,243,12.0,20.0,59,0.00,,,0.00,509.000000,,2013-02-23 19:32:00,
2013-02-23 11:42:00,37.0,24.0,-100.00,WSW,243,12.0,20.0,59,0.00,,,0.00,509.000000,,2013-02-23 19:42:00,
2013-02-23 11:52:00,37.0,24.0,-100.00,WSW,243,12.0,20.0,59,0.00,,,0.00,509.000000,,2013-02-23 19:52:00,
2013-02-23 12:01:00,37.0,24.0,-100.00,WSW,243,12.0,20.0,59,0.00,,,0.00,509.000000,,2013-02-23 20:01:00,
2013-02-23 12:22:00,39.0,25.0,-100.00,WSW,250,16.0,22.0,56,0.00,,,0.00,339.000000,,2013-02-23 20:22:00,
2013-02-23 12:32:00,39.0,25.0,-100.00,WSW,250,16.0,22.0,56,0.00,,,0.00,339.000000,,2013-02-23 20:32:00,
2013-02-23 12:42:00,39.0,25.0,-100.00,WSW,250,16.0,22.0,56,0.00,,,0.00,339.000000,,2013-02-23 20:42:00,
2013-02-23 12:52:00,39.0,25.0,-100.00,WSW,250,16.0,22.0,56,0.00,,,0.00,339.000000,,2013-02-23 20:52:00,
2013-02-23 13:01:00,39.0,25.0,-100.00,WSW,250,16.0,22.0,56,0.00,,,0.00,339.000000,,2013-02-23 21:01:00,
2013-02-23 13:32:00,39.0,23.0,-100.00,West,264,12.0,22.0,53,0.00,,,0.00,589.000000,,2013-02-23 21:32:00,
2013-02-23 13:42:00,39.0,23.0,-100.00,West,264,12.0,22.0,53,0.00,,,0.00,589.000000,,2013-02-23 21:42:00,
2013-02-23 13:52:00,39.0,23.0,-100.00,West,264,12.0,22.0,53,0.00,,,0.00,589.000000,,2013-02-23 21:52:00,
2013-02-23 14:01:00,39.0,23.0,-100.00,West,264,12.0,22.0,53,0.00,,,0.00,589.000000,,2013-02-23 22:01:00,
2013-02-23 14:22:00,38.0,21.0,-100.00,WSW,253,16.0,24.0,49,0.00,,,0.00,470.000000,,2013-02-23 22:22:00,
2013-02-23 14:32:00,38.0,21.0,-100.00,WSW,253,16.0,24.0,49,0.00,,,0.00,470.000000,,2013-02-23 22:32:00,
2013-02-23 14:42:00,38.0,21.0,-100.00,WSW,253,16.0,24.0,49,0.00,,,0.00,470.000000,,2013-02-23 22:42:00,
2013-02-23 14:52:00,38.0,21.0,-100.00,WSW,253,16.0,24.0,49,0.00,,,0.00,470.000000,,2013-02-23 22:52:00,
2013-02-23 15:01:00,38.0,21.0,-100.00,WSW,253,16.0,24.0,49,0.00,,,0.00,470.000000,,2013-02-23 23:01:00,
2013-02-23 15:32:00,38.0,21.0,-100.00,West,272,14.0,24.0,49,0.00,,,0.00,352.000000,,2013-02-23 23:32:00,
2013-02-23 15:42:00,38.0,21.0,-100.00,West,272,14.0,24.0,49,0.00,,,0.00,352.000000,,2013-02-23 23:42:00,
2013-02-23 15:52:00,38.0,21.0,-100.00,West,272,14.0,24.0,49,0.00,,,0.00,352.000000,,2013-02-23 23:52:00,
2013-02-23 16:01:00,38.0,21.0,-100.00,West,272,14.0,24.0,49,0.00,,,0.00,352.000000,,2013-02-24 00:01:00,
2013-02-23 16:22:00,36.0,19.0,-100.00,West,261,10.0,24.0,49,0.00,,,0.00,221.000000,,2013-02-24 00:22:00,
2013-02-23 16:32:00,36.0,19.0,-100.00,West,261,10.0,24.0,49,0.00,,,0.00,221.000000,,2013-02-24 00:32:00,
2013-02-23 16:42:00,36.0,19.0,-100.00,West,261,10.0,24.0,49,0.00,,,0.00,221.000000,,2013-02-24 00:42:00,
2013-02-23 16:52:00,36.0,19.0,-100.00,West,261,10.0,24.0,49,0.00,,,0.00,221.000000,,2013-02-24 00:52:00,
2013-02-23 17:01:00,36.0,19.0,-100.00,West,261,10.0,24.0,49,0.00,,,0.00,221.000000,,2013-02-24 01:01:00,
2013-02-23 17:32:00,35.0,20.0,-100.00,WSW,254,8.0,16.0,53,0.00,,,0.00,96.000000,,2013-02-24 01:32:00,
2013-02-23 17:42:00,35.0,20.0,-100.00,WSW,254,8.0,16.0,53,0.00,,,0.00,96.000000,,2013-02-24 01:42:00,
2013-02-23 17:52:00,35.0,20.0,-100.00,WSW,254,8.0,16.0,53,0.00,,,0.00,96.000000,,2013-02-24 01:52:00,
2013-02-23 18:01:00,35.0,20.0,-100.00,WSW,254,8.0,16.0,53,0.00,,,0.00,96.000000,,2013-02-24 02:01:00,
2013-02-23 18:32:00,31.0,20.0,-100.00,West,263,6.0,13.0,62,0.00,,,0.00,17.000000,,2013-02-24 02:32:00,
2013-02-23 18:42:00,31.0,20.0,-100.00,West,263,6.0,13.0,62,0.00,,,0.00,17.000000,,2013-02-24 02:42:00,
2013-02-23 18:52:00,31.0,20.0,-100.00,West,263,6.0,13.0,62,0.00,,,0.00,17.000000,,2013-02-24 02:52:00,
2013-02-23 19:01:00,31.0,20.0,-100.00,West,263,6.0,13.0,62,0.00,,,0.00,17.000000,,2013-02-24 03:01:00,
2013-02-23 19:32:00,31.0,19.0,-100.00,NW,304,4.0,11.0,61,0.00,,,0.00,1.000000,,2013-02-24 03:32:00,
2013-02-23 19:42:00,31.0,19.0,-100.00,NW,304,4.0,11.0,61,0.00,,,0.00,1.000000,,2013-02-24 03:42:00,
2013-02-23 19:52:00,31.0,19.0,-100.00,NW,304,4.0,11.0,61,0.00,,,0.00,1.000000,,2013-02-24 03:52:00,
2013-02-23 20:01:00,31.0,19.0,-100.00,NW,304,4.0,11.0,61,0.00,,,0.00,1.000000,,2013-02-24 04:01:00,
2013-02-23 20:32:00,30.0,20.0,-100.00,ESE,120,3.0,9.0,67,0.00,,,0.00,1.000000,,2013-02-24 04:32:00,
2013-02-23 20:42:00,30.0,20.0,-100.00,ESE,120,3.0,9.0,67,0.00,,,0.00,1.000000,,2013-02-24 04:42:00,
2013-02-23 20:52:00,30.0,20.0,-100.00,ESE,120,3.0,9.0,67,0.00,,,0.00,1.000000,,2013-02-24 04:52:00,
2013-02-23 21:01:00,30.0,20.0,-100.00,ESE,120,3.0,9.0,67,0.00,,,0.00,1.000000,,2013-02-24 05:01:00,
2013-02-23 21:22:00,30.0,23.0,-100.00,ESE,107,6.0,11.0,75,0.00,,,0.00,1.000000,,2013-02-24 05:22:00,
2013-02-23 21:32:00,30.0,23.0,-100.00,ESE,107,6.0,11.0,75,0.00,,,0.00,1.000000,,2013-02-24 05:32:00,
2013-02-23 21:42:00,30.0,23.0,-100.00,ESE,107,6.0,11.0,75,0.00,,,0.00,1.000000,,2013-02-24 05:42:00,
2013-02-23 21:52:00,30.0,23.0,-100.00,ESE,107,6.0,11.0,75,0.00,,,0.00,1.000000,,2013-02-24 05:52:00,
2013-02-23 22:01:00,30.0,23.0,-100.00,ESE,107,6.0,11.0,75,0.00,,,0.00,1.000000,,2013-02-24 06:01:00,
2013-02-23 22:21:00,28.0,22.0,-100.00,SW,217,2.0,9.0,77,0.00,,,0.00,1.000000,,2013-02-24 06:21:00,
2013-02-23 22:32:00,28.0,22.0,-100.00,SW,217,2.0,9.0,77,0.00,,,0.00,1.000000,,2013-02-24 06:32:00,
2013-02-23 22:42:00,28.0,22.0,-100.00,SW,217,2.0,9.0,77,0.00,,,0.00,1.000000,,2013-02-24 06:42:00,
2013-02-23 22:52:00,28.0,22.0,-100.00,SW,217,2.0,9.0,77,0.00,,,0.00,1.000000,,2013-02-24 06:52:00,
2013-02-23 23:01:00,28.0,22.0,-100.00,SW,217,2.0,9.0,77,0.00,,,0.00,1.000000,,2013-02-24 07:01:00,
2013-02-23 23:32:00,26.0,19.0,-100.00,ESE,106,3.0,6.0,76,0.00,,,-99.99,1.000000,,2013-02-24 07:32:00,
2013-02-23 23:42:00,26.0,19.0,-100.00,ESE,106,3.0,6.0,76,0.00,,,-99.99,1.000000,,2013-02-24 07:42:00,
2013-02-23 23:52:00,26.0,19.0,-100.00,ESE,106,3.0,6.0,76,0.00,,,-99.99,1.000000,,2013-02-24 07:52:00,